Time;durP1;ratioP1;P1;durP2;ratioP2;P2;SDS_P1;SDS_P2;PMS_P1;PMS_P2;Temp;Humidity;BMP_temperature;BMP_pressure;BME280_temperature;BME280_humidity;BME280_pressure;Samples;Min_cycle;Max_cycle;Signal;HPM_P1;HPM_P2
2022/12/16 00:01:30;;;;;;;89.05;45.85;;;;;;;-4.76;100.00;101013.09;5013189;28;20033;-76
2022/12/16 00:03:57;;;;;;;80.75;42.35;;;;;;;-4.71;100.00;101008.19;5010347;28;20029;-76
2022/12/16 00:06:25;;;;;;;81.68;42.60;;;;;;;-4.71;100.00;101010.72;5004337;28;20382;-76
2022/12/16 00:08:50;;;;;;;76.22;43.42;;;;;;;-4.65;100.00;101015.22;5013224;28;20492;-76
2022/12/16 00:11:15;;;;;;;76.07;43.58;;;;;;;-4.61;100.00;101017.97;5012850;28;20026;-76
2022/12/16 00:13:41;;;;;;;85.50;45.13;;;;;;;-4.57;100.00;101014.72;5014158;28;20110;-76
2022/12/16 00:16:14;;;;;;;80.70;42.05;;;;;;;-4.53;100.00;101016.56;5012542;28;20448;-76
2022/12/16 00:18:40;;;;;;;81.22;44.22;;;;;;;-4.49;100.00;101013.34;5013052;28;20437;-76
2022/12/16 00:21:06;;;;;;;82.55;42.50;;;;;;;-4.53;100.00;101001.31;5011356;28;20176;-77
2022/12/16 00:23:32;;;;;;;78.40;42.25;;;;;;;-4.48;100.00;100996.38;5009692;28;20049;-76
2022/12/16 00:25:58;;;;;;;81.97;42.65;;;;;;;-4.38;100.00;101006.16;5012689;28;20026;-76
2022/12/16 00:28:27;;;;;;;77.57;40.78;;;;;;;-4.32;100.00;101002.97;5012401;28;20036;-76
2022/12/16 00:30:54;;;;;;;77.78;41.10;;;;;;;-4.37;100.00;100990.06;5010352;28;20389;-76
2022/12/16 00:33:20;;;;;;;75.95;40.53;;;;;;;-4.28;100.00;100999.75;5013848;28;20026;-76
2022/12/16 00:35:46;;;;;;;74.05;40.45;;;;;;;-4.25;100.00;100988.00;5011195;28;20033;-76
2022/12/16 00:38:13;;;;;;;74.03;40.08;;;;;;;-4.26;100.00;100993.00;5013214;28;20033;-76
2022/12/16 00:40:38;;;;;;;75.22;41.38;;;;;;;-4.27;100.00;100978.56;5011876;28;20029;-76
2022/12/16 00:43:03;;;;;;;80.68;41.78;;;;;;;-4.13;100.00;101002.00;5010834;28;20528;-76
2022/12/16 00:45:29;;;;;;;76.55;43.00;;;;;;;-4.17;100.00;100988.28;5012602;28;20457;-76
2022/12/16 00:47:55;;;;;;;74.38;41.55;;;;;;;-4.09;100.00;100997.09;5013239;28;20441;-76
2022/12/16 00:50:20;;;;;;;77.18;42.40;;;;;;;-4.12;100.00;100989.34;5010349;28;20018;-76
2022/12/16 00:52:46;;;;;;;79.28;40.72;;;;;;;-4.04;100.00;101000.69;5013191;28;20113;-76
2022/12/16 00:55:12;;;;;;;69.78;40.90;;;;;;;-4.01;100.00;101002.47;5009720;28;20483;-76
2022/12/16 00:57:38;;;;;;;78.53;40.78;;;;;;;-4.01;100.00;101002.47;5012547;28;20022;-76
2022/12/16 01:00:04;;;;;;;70.60;40.10;;;;;;;-4.06;100.00;100999.72;5010153;28;20440;-76
2022/12/16 01:02:31;;;;;;;75.13;41.67;;;;;;;-3.98;100.00;101010.22;5013250;28;20026;-76
2022/12/16 01:04:56;;;;;;;70.60;41.03;;;;;;;-3.96;100.00;101010.28;5010744;28;20033;-76
2022/12/16 01:07:21;;;;;;;75.25;40.20;;;;;;;-3.96;100.00;101011.13;5011668;28;20452;-77
2022/12/16 01:09:46;;;;;;;75.28;41.80;;;;;;;-3.91;100.00;101019.84;5010959;28;20025;-76
2022/12/16 01:12:12;;;;;;;79.97;42.20;;;;;;;-3.94;100.00;101018.84;5011759;28;20036;-76
2022/12/16 01:14:37;;;;;;;72.85;38.67;;;;;;;-3.87;100.00;101020.81;5010981;28;20113;-76
2022/12/16 01:17:02;;;;;;;71.95;40.00;;;;;;;-3.88;100.00;101014.00;5011940;28;20036;-76
2022/12/16 01:19:28;;;;;;;74.97;40.72;;;;;;;-3.83;100.00;101026.06;5010104;28;20022;-76
2022/12/16 01:21:53;;;;;;;65.88;37.97;;;;;;;-3.81;100.00;101026.16;5006715;28;20112;-76
2022/12/16 01:24:18;;;;;;;71.25;38.08;;;;;;;-3.93;100.00;101012.94;5013246;28;20112;-76
2022/12/16 01:26:43;;;;;;;69.93;37.90;;;;;;;-3.79;100.00;101039.81;5010756;28;20381;-76
2022/12/16 01:29:09;;;;;;;73.47;39.15;;;;;;;-3.82;100.00;101032.94;5012783;28;20441;-76
2022/12/16 01:31:34;;;;;;;70.47;38.88;;;;;;;-3.76;100.00;101039.94;5006958;28;20029;-76
2022/12/16 01:33:59;;;;;;;72.65;39.03;;;;;;;-3.75;100.00;101045.91;5012119;28;20041;-76
2022/12/16 01:36:25;;;;;;;66.72;38.10;;;;;;;-3.74;100.00;101051.03;5011736;28;20839;-76
2022/12/16 01:38:50;;;;;;;70.22;38.88;;;;;;;-3.77;100.00;101046.69;5011433;28;20029;-77
2022/12/16 01:41:16;;;;;;;68.13;37.88;;;;;;;-3.77;100.00;101053.47;5010368;28;20029;-76
2022/12/16 01:43:43;;;;;;;72.68;37.95;;;;;;;-3.77;100.00;101048.38;5007924;28;20505;-77
2022/12/16 01:46:11;;;;;;;72.88;38.70;;;;;;;-3.72;100.00;101062.16;5010436;28;20034;-76
2022/12/16 01:48:58;;;;;;;74.30;38.90;;;;;;;-3.70;100.00;101064.75;5010527;28;20033;-76
2022/12/16 01:51:34;;;;;;;72.93;38.95;;;;;;;-3.68;100.00;101069.09;5010422;28;20041;-76
2022/12/16 01:54:16;;;;;;;70.28;39.05;;;;;;;-3.64;100.00;101075.19;5002861;28;20072;-76
2022/12/16 01:56:55;;;;;;;69.57;39.03;;;;;;;-3.61;100.00;101070.22;5010481;28;20022;-76
2022/12/16 01:59:23;;;;;;;69.13;39.10;;;;;;;-3.67;100.00;101063.19;5012828;28;20112;-76
2022/12/16 02:01:49;;;;;;;73.32;38.92;;;;;;;-3.61;100.00;101065.97;5005223;28;20066;-76
2022/12/16 02:04:14;;;;;;;72.13;38.90;;;;;;;-3.64;100.00;101065.00;5008670;28;20489;-77
2022/12/16 02:06:39;;;;;;;71.32;39.67;;;;;;;-3.62;100.00;101069.34;5011828;28;20034;-76
2022/12/16 02:09:09;;;;;;;72.20;40.03;;;;;;;-3.61;100.00;101076.16;5012939;28;20079;-77
2022/12/16 02:12:11;;;;;;;72.00;39.53;;;;;;;-3.59;100.00;101084.75;5014257;28;20034;-76
2022/12/16 02:14:44;;;;;;;70.95;37.97;;;;;;;-3.59;100.00;101077.09;5013761;28;20428;-76
2022/12/16 02:17:20;;;;;;;64.78;37.35;;;;;;;-3.59;100.00;101078.78;5011746;28;20030;-76
2022/12/16 02:20:04;;;;;;;68.95;38.03;;;;;;;-3.53;100.00;101092.63;5011627;28;20048;-76
2022/12/16 02:22:32;;;;;;;69.05;37.65;;;;;;;-3.50;100.00;101089.31;5005371;28;20044;-76
2022/12/16 02:25:16;;;;;;;75.65;39.38;;;;;;;-3.44;100.00;101084.44;5013550;28;20076;-77
2022/12/16 02:28:03;;;;;;;70.72;38.47;;;;;;;-3.38;100.00;101088.91;5011929;28;20116;-77
2022/12/16 02:30:34;;;;;;;67.45;37.25;;;;;;;-3.36;100.00;101093.25;5015876;28;20037;-76
2022/12/16 02:33:25;;;;;;;71.50;40.30;;;;;;;-3.36;100.00;101103.44;5014580;28;20116;-77
2022/12/16 02:36:15;;;;;;;66.95;38.50;;;;;;;-3.33;100.00;101097.59;4994024;28;20049;-76
2022/12/16 02:39:07;;;;;;;70.75;39.42;;;;;;;-3.32;100.00;101096.78;5013044;28;20030;-76
2022/12/16 02:41:49;;;;;;;72.60;38.90;;;;;;;-3.36;100.00;101093.25;5014878;28;20030;-77
2022/12/16 02:44:16;;;;;;;66.93;37.78;;;;;;;-3.33;100.00;101098.47;5010895;28;20042;-76
2022/12/16 02:46:54;;;;;;;67.28;38.33;;;;;;;-3.29;100.00;101102.00;5013587;28;20096;-76
2022/12/16 02:49:19;;;;;;;68.18;39.20;;;;;;;-3.29;100.00;101099.44;5012956;28;20030;-76
2022/12/16 02:51:44;;;;;;;66.70;38.90;;;;;;;-3.29;100.00;101099.44;5014887;28;20053;-76
2022/12/16 02:54:11;;;;;;;72.30;39.78;;;;;;;-3.35;100.00;101089.03;5013165;28;20394;-77
2022/12/16 02:56:51;;;;;;;71.40;39.78;;;;;;;-3.27;100.00;101100.38;5012889;28;20385;-77
2022/12/16 02:59:31;;;;;;;72.88;40.88;;;;;;;-3.25;100.00;101103.84;5011712;28;20029;-77
2022/12/16 03:02:11;;;;;;;67.68;39.03;;;;;;;-3.24;100.00;101108.13;5006207;28;20121;-77
2022/12/16 03:04:42;;;;;;;73.93;39.33;;;;;;;-3.21;100.00;101102.25;5012754;28;20026;-76
2022/12/16 03:07:12;;;;;;;79.82;40.72;;;;;;;-3.28;100.00;101085.00;5004417;28;20026;-77
2022/12/16 03:09:39;;;;;;;73.05;40.22;;;;;;;-3.22;100.00;101111.59;5011104;28;20104;-77
2022/12/16 03:12:10;;;;;;;70.32;41.35;;;;;;;-3.23;100.00;101114.09;5009718;28;20136;-77
2022/12/16 03:14:39;;;;;;;76.32;42.10;;;;;;;-3.31;100.00;101095.97;5005294;28;20044;-77
2022/12/16 03:17:07;;;;;;;80.82;43.20;;;;;;;-3.43;100.00;101085.34;5014053;28;20029;-77
2022/12/16 03:19:33;;;;;;;78.93;43.53;;;;;;;-3.33;100.00;101108.66;5013294;28;20060;-77
2022/12/16 03:22:06;;;;;;;78.30;43.45;;;;;;;-3.43;100.00;101103.19;5013607;28;20029;-77
2022/12/16 03:24:32;;;;;;;82.05;43.95;;;;;;;-3.33;100.00;101115.44;5011071;28;20037;-77
2022/12/16 03:27:10;;;;;;;81.32;43.75;;;;;;;-3.35;100.00;101115.38;5011595;28;20022;-77
2022/12/16 03:29:49;;;;;;;79.43;45.55;;;;;;;-3.35;100.00;101119.63;5004249;28;20517;-77
2022/12/16 03:32:26;;;;;;;81.25;44.15;;;;;;;-3.39;100.00;101122.88;5014136;28;20111;-76
2022/12/16 03:34:58;;;;;;;79.90;45.03;;;;;;;-3.45;100.00;101117.53;5008001;28;20037;-77
2022/12/16 03:37:28;;;;;;;85.78;46.08;;;;;;;-3.41;100.00;101125.34;5014998;28;20026;-77
2022/12/16 03:39:57;;;;;;;85.78;46.28;;;;;;;-3.50;100.00;101108.84;5012752;28;20034;-77
2022/12/16 03:42:23;;;;;;;82.55;46.13;;;;;;;-3.47;100.00;101122.56;5013814;28;20100;-77
2022/12/16 03:44:49;;;;;;;83.05;46.65;;;;;;;-3.49;100.00;101129.28;5011176;28;20045;-76
2022/12/16 03:47:14;;;;;;;83.10;46.15;;;;;;;-3.51;100.00;101132.59;5012488;28;20113;-77
2022/12/16 03:49:40;;;;;;;82.93;46.00;;;;;;;-3.56;100.00;101127.34;4999538;28;20109;-77
2022/12/16 03:52:05;;;;;;;84.10;47.22;;;;;;;-3.63;100.00;101131.31;5013562;28;20410;-77
2022/12/16 03:54:31;;;;;;;84.80;46.22;;;;;;;-3.56;100.00;101138.38;5011683;28;20021;-77
2022/12/16 03:56:56;;;;;;;83.93;46.17;;;;;;;-3.53;100.00;101135.09;5002610;28;20480;-77
2022/12/16 03:59:22;;;;;;;92.45;47.67;;;;;;;-3.50;100.00;101135.19;5010158;28;20030;-77
2022/12/16 04:01:48;;;;;;;97.18;48.45;;;;;;;-3.46;100.00;101139.63;5012792;28;20500;-77
2022/12/16 04:04:17;;;;;;;91.28;48.90;;;;;;;-3.42;100.00;101138.91;5013517;28;20041;-77
2022/12/16 04:06:42;;;;;;;89.93;48.30;;;;;;;-3.40;100.00;101136.41;5008699;28;20022;-77
2022/12/16 04:09:08;;;;;;;93.55;49.47;;;;;;;-3.34;100.00;101152.81;5011247;28;20033;-77
2022/12/16 04:25:21;;;;;;;103.72;49.47;;;;;;;-3.09;100.00;101169.91;5011746;28;20052;-77
2022/12/16 04:27:49;;;;;;;107.88;50.78;;;;;;;-3.04;100.00;101174.28;5012816;28;20356;-77
2022/12/16 04:30:20;;;;;;;111.80;50.85;;;;;;;-3.02;100.00;101176.09;5011393;28;20036;-77
